Time;durP1;ratioP1;P1;durP2;ratioP2;P2;SDS_P1;SDS_P2;PMS_P1;PMS_P2;Temp;Humidity;BMP_temperature;BMP_pressure;BME280_temperature;BME280_humidity;BME280_pressure;Samples;Min_cycle;Max_cycle;Signal;HPM_P1;HPM_P2
2021/05/08 00:00:17;;;;;;;6.05;3.00;;;6.30;99.90;;;;;;5054455;28;20033;-84
2021/05/08 00:02:43;;;;;;;4.38;2.17;;;6.20;99.90;;;;;;5054191;28;20024;-83
2021/05/08 00:05:11;;;;;;;4.72;2.40;;;6.30;99.90;;;;;;5036357;28;20025;-84
2021/05/08 00:07:36;;;;;;;4.07;2.35;;;6.10;99.90;;;;;;5036223;28;20021;-83
2021/05/08 00:10:05;;;;;;;4.90;2.95;;;;;;;;;;5036286;28;20116;-83
2021/05/08 00:12:31;;;;;;;4.78;2.53;;;5.70;99.90;;;;;;5036193;28;20082;-84
2021/05/08 00:14:57;;;;;;;3.88;2.25;;;5.80;99.90;;;;;;5054007;28;20025;-84
2021/05/08 00:17:22;;;;;;;4.60;2.15;;;5.90;99.90;;;;;;5036041;28;20021;-84
2021/05/08 00:19:48;;;;;;;6.05;2.58;;;6.10;99.90;;;;;;5054163;28;20151;-84
2021/05/08 00:22:13;;;;;;;3.90;2.10;;;6.20;99.90;;;;;;5036014;28;20024;-84
2021/05/08 00:24:39;;;;;;;5.60;2.22;;;6.20;99.90;;;;;;5036020;28;20504;-84
2021/05/08 00:27:05;;;;;;;6.72;2.83;;;6.10;99.90;;;;;;5035985;28;20548;-84
2021/05/08 00:29:31;;;;;;;5.93;2.10;;;5.80;99.90;;;;;;5035904;28;20025;-83
2021/05/08 00:31:56;;;;;;;4.38;2.60;;;5.50;99.90;;;;;;5053741;28;20048;-83
2021/05/08 00:34:22;;;;;;;3.15;2.10;;;5.50;99.90;;;;;;5035789;28;20074;-83
2021/05/08 00:36:48;;;;;;;4.47;2.70;;;5.70;99.90;;;;;;5053670;28;20095;-82
2021/05/08 00:39:13;;;;;;;6.30;2.42;;;5.60;99.90;;;;;;5053499;28;20446;-83
2021/05/08 00:41:39;;;;;;;3.55;2.00;;;5.40;99.90;;;;;;5053863;28;20021;-83
2021/05/08 00:44:05;;;;;;;6.30;2.38;;;5.60;99.90;;;;;;5035680;28;20029;-83
2021/05/08 00:46:31;;;;;;;4.57;2.22;;;5.70;99.90;;;;;;5035529;28;20412;-83
2021/05/08 00:48:57;;;;;;;3.65;2.45;;;6.10;99.90;;;;;;5053324;28;20535;-83
2021/05/08 00:51:24;;;;;;;5.47;2.38;;;6.00;99.90;;;;;;5035510;28;20029;-83
2021/05/08 00:53:50;;;;;;;4.65;2.40;;;5.90;99.90;;;;;;5035549;28;20055;-82
2021/05/08 00:56:16;;;;;;;4.55;2.13;;;5.40;99.90;;;;;;5035806;28;20430;-83
2021/05/08 00:58:42;;;;;;;5.15;2.30;;;5.30;99.90;;;;;;5035361;28;20078;-82
2021/05/08 01:01:08;;;;;;;4.13;2.10;;;5.60;99.90;;;;;;5035415;28;20112;-83
2021/05/08 01:03:34;;;;;;;2.67;2.08;;;5.80;99.90;;;;;;5053220;28;20028;-82
2021/05/08 01:06:00;;;;;;;6.88;2.53;;;5.80;99.90;;;;;;5035349;28;20032;-82
2021/05/08 01:08:26;;;;;;;2.90;2.13;;;5.60;99.90;;;;;;5053464;28;20031;-83
2021/05/08 01:10:52;;;;;;;4.30;2.45;;;5.80;99.90;;;;;;5036225;28;20020;-82
2021/05/08 01:13:18;;;;;;;4.57;1.92;;;6.00;99.90;;;;;;5035240;28;20029;-82
2021/05/08 01:15:44;;;;;;;3.85;2.20;;;6.10;99.90;;;;;;5035298;28;20035;-82
2021/05/08 01:18:10;;;;;;;4.15;2.25;;;5.40;99.90;;;;;;5053099;28;20036;-83
2021/05/08 01:20:36;;;;;;;3.75;2.20;;;5.60;99.90;;;;;;5035181;28;20488;-83
2021/05/08 01:23:02;;;;;;;3.28;2.25;;;5.60;99.90;;;;;;5035188;28;20028;-83
2021/05/08 01:25:29;;;;;;;7.78;2.50;;;5.70;99.90;;;;;;5035141;28;20563;-83
2021/05/08 01:27:59;;;;;;;13.52;5.38;;;5.80;99.90;;;;;;5053015;28;20095;-83
2021/05/08 01:30:31;;;;;;;7.88;3.08;;;6.00;99.90;;;;;;5035104;28;20417;-82
2021/05/08 01:32:57;;;;;;;6.60;3.45;;;5.60;99.90;;;;;;5035088;28;20384;-83
2021/05/08 01:35:23;;;;;;;5.88;2.88;;;6.10;99.90;;;;;;5035064;28;20032;-83
2021/05/08 01:37:49;;;;;;;4.28;2.53;;;6.20;99.90;;;;;;5035025;28;20496;-83
2021/05/08 01:40:16;;;;;;;4.93;2.78;;;5.60;99.90;;;;;;5035062;28;20053;-82
2021/05/08 01:42:45;;;;;;;4.18;2.42;;;5.40;99.90;;;;;;5052893;28;20062;-82
2021/05/08 01:45:16;;;;;;;5.07;2.65;;;5.40;99.90;;;;;;5052858;28;20147;-82
2021/05/08 01:47:42;;;;;;;4.18;2.50;;;5.50;99.90;;;;;;5038601;28;20044;-83
2021/05/08 01:50:11;;;;;;;5.55;2.45;;;5.70;99.90;;;;;;5057059;28;20053;-83
2021/05/08 01:52:37;;;;;;;4.18;2.28;;;5.50;99.90;;;;;;5056698;28;20024;-83
2021/05/08 01:55:12;;;;;;;4.75;1.88;;;5.50;99.90;;;;;;5038782;28;20029;-82
2021/05/08 01:57:46;;;;;;;5.47;2.10;;;5.40;99.90;;;;;;5038568;28;20033;-83
2021/05/08 02:00:17;;;;;;;4.95;2.67;;;4.90;99.90;;;;;;5038741;28;20037;-82
2021/05/08 02:02:43;;;;;;;3.38;2.20;;;5.20;99.90;;;;;;5038628;28;20108;-83
2021/05/08 02:05:08;;;;;;;5.10;2.30;;;4.90;99.90;;;;;;5056495;28;20487;-83
2021/05/08 02:07:35;;;;;;;4.00;2.50;;;5.00;99.90;;;;;;5038581;28;20036;-83
2021/05/08 02:10:03;;;;;;;3.90;2.28;;;5.10;99.90;;;;;;5056353;28;20096;-83
2021/05/08 02:12:31;;;;;;;3.58;2.17;;;5.30;99.90;;;;;;5038497;28;20106;-82
2021/05/08 02:14:57;;;;;;;4.05;2.40;;;5.10;99.90;;;;;;5038458;28;20025;-82
2021/05/08 02:17:22;;;;;;;3.95;2.22;;;5.10;99.90;;;;;;5038427;28;20027;-82
2021/05/08 02:19:48;;;;;;;4.82;2.50;;;5.30;99.90;;;;;;5038211;28;20036;-82
2021/05/08 02:22:14;;;;;;;5.15;2.20;;;5.70;99.90;;;;;;5038243;28;20021;-82
2021/05/08 02:24:39;;;;;;;4.32;2.55;;;5.10;99.90;;;;;;5038180;28;20116;-83
2021/05/08 02:27:05;;;;;;;3.38;2.28;;;5.00;99.90;;;;;;5038235;28;20025;-83
2021/05/08 02:29:31;;;;;;;6.20;2.38;;;5.30;99.90;;;;;;5038086;28;20032;-83
2021/05/08 02:31:57;;;;;;;3.25;2.13;;;5.50;99.90;;;;;;5038015;28;20503;-82
2021/05/08 02:34:22;;;;;;;4.97;2.47;;;5.40;99.90;;;;;;5038069;28;20029;-83
2021/05/08 02:36:48;;;;;;;3.63;2.20;;;5.70;99.90;;;;;;5038081;28;20021;-83
2021/05/08 02:39:13;;;;;;;6.63;2.20;;;5.70;99.90;;;;;;5037822;28;20025;-83
2021/05/08 02:41:39;;;;;;;6.35;2.60;;;5.40;99.90;;;;;;5038266;28;20021;-84
2021/05/08 02:44:05;;;;;;;4.22;2.30;;;5.10;99.90;;;;;;5037924;28;20021;-83
2021/05/08 02:46:31;;;;;;;7.03;2.30;;;5.40;99.90;;;;;;5037693;28;20028;-82
2021/05/08 02:48:56;;;;;;;4.03;2.40;;;5.40;99.90;;;;;;5037623;28;20151;-83
2021/05/08 02:51:22;;;;;;;3.92;2.20;;;5.40;99.90;;;;;;5037817;28;20503;-82
2021/05/08 02:53:48;;;;;;;5.97;2.20;;;5.20;99.90;;;;;;5055591;28;20361;-82
2021/05/08 02:56:13;;;;;;;3.47;2.40;;;5.20;99.90;;;;;;5037598;28;20055;-82
2021/05/08 02:58:39;;;;;;;2.88;2.33;;;5.40;99.90;;;;;;5036323;28;20021;-82
2021/05/08 03:01:05;;;;;;;3.17;2.08;;;5.40;99.90;;;;;;5037606;28;20065;-82
2021/05/08 03:03:30;;;;;;;3.08;2.10;;;5.30;99.90;;;;;;5055404;28;20146;-82
2021/05/08 03:05:56;;;;;;;2.78;2.10;;;5.00;99.90;;;;;;5055612;28;20025;-82
2021/05/08 03:08:22;;;;;;;3.50;2.05;;;5.20;99.90;;;;;;5037478;28;20055;-82
2021/05/08 03:10:47;;;;;;;3.03;2.40;;;4.80;99.90;;;;;;5037679;28;20464;-84
2021/05/08 03:13:13;;;;;;;4.95;2.40;;;4.70;99.90;;;;;;5037373;28;20029;-84
2021/05/08 03:15:38;;;;;;;4.93;2.40;;;4.50;99.90;;;;;;5037355;28;20462;-84
2021/05/08 03:18:04;;;;;;;4.05;2.17;;;4.40;99.90;;;;;;5037214;28;20033;-84
2021/05/08 03:20:30;;;;;;;3.40;2.80;;;4.50;99.90;;;;;;5037163;28;20439;-83
2021/05/08 03:22:56;;;;;;;3.17;2.33;;;4.60;99.90;;;;;;5055064;28;20081;-84
2021/05/08 03:25:22;;;;;;;3.58;2.20;;;4.30;99.90;;;;;;5037146;28;20056;-83
2021/05/08 03:27:47;;;;;;;6.72;2.67;;;4.40;99.90;;;;;;5037074;28;20031;-84
2021/05/08 03:30:14;;;;;;;3.67;2.10;;;4.50;99.90;;;;;;5054898;28;20032;-83
2021/05/08 03:32:39;;;;;;;6.30;2.42;;;4.80;99.90;;;;;;5036932;28;20036;-83
2021/05/08 03:35:05;;;;;;;3.60;2.13;;;4.60;99.90;;;;;;5036884;28;20029;-84
2021/05/08 03:37:31;;;;;;;5.05;2.55;;;4.60;99.90;;;;;;5036836;28;20171;-83
2021/05/08 03:39:57;;;;;;;4.50;2.28;;;4.90;99.90;;;;;;5054658;28;20108;-83
2021/05/08 03:42:22;;;;;;;4.15;2.22;;;5.40;99.90;;;;;;5036755;28;20522;-83
2021/05/08 03:44:48;;;;;;;3.05;2.22;;;5.20;99.90;;;;;;5037566;28;20371;-83
2021/05/08 03:47:14;;;;;;;4.60;2.50;;;5.30;99.90;;;;;;5054304;28;20021;-83
2021/05/08 03:49:39;;;;;;;5.60;2.30;;;5.20;99.90;;;;;;5037052;28;20031;-83
2021/05/08 03:52:05;;;;;;;3.47;2.15;;;4.90;99.90;;;;;;5036666;28;20036;-83
2021/05/08 03:54:31;;;;;;;4.32;2.45;;;4.90;99.90;;;;;;5036549;28;20392;-83
2021/05/08 03:56:59;;;;;;;5.18;2.63;;;5.00;99.90;;;;;;5054377;28;20082;-84
2021/05/08 03:59:25;;;;;;;3.70;2.65;;;4.60;99.90;;;;;;5054317;28;20112;-84
2021/05/08 04:01:51;;;;;;;5.28;2.60;;;4.60;99.90;;;;;;5036391;28;20025;-84
2021/05/08 04:04:17;;;;;;;5.28;3.17;;;4.50;99.90;;;;;;5036426;28;20142;-84
2021/05/08 04:06:42;;;;;;;2.47;2.10;;;4.10;99.90;;;;;;5036365;28;20108;-84
2021/05/08 04:09:09;;;;;;;4.13;2.50;;;4.30;99.90;;;;;;5035883;28;20021;-84
2021/05/08 04:11:36;;;;;;;5.97;2.50;;;4.80;99.90;;;;;;5036179;28;20024;-84
2021/05/08 04:14:03;;;;;;;2.83;2.33;;;4.70;99.90;;;;;;5036162;28;20111;-84
2021/05/08 04:16:31;;;;;;;5.28;2.40;;;4.60;99.90;;;;;;5036149;28;20028;-83
2021/05/08 04:18:58;;;;;;;3.25;2.47;;;4.90;99.90;;;;;;5053876;28;20021;-83
2021/05/08 04:21:24;;;;;;;2.92;2.13;;;4.90;99.90;;;;;;5035997;28;20017;-83
2021/05/08 04:23:49;;;;;;;3.97;2.55;;;5.10;99.90;;;;;;5036021;28;20035;-83
2021/05/08 04:26:15;;;;;;;5.30;2.45;;;4.80;99.90;;;;;;5053864;28;20560;-83
2021/05/08 04:28:41;;;;;;;6.63;2.70;;;4.80;99.90;;;;;;5035974;28;20021;-83
2021/05/08 04:31:06;;;;;;;5.82;2.50;;;4.80;99.90;;;;;;5036092;28;20171;-83
2021/05/08 04:33:32;;;;;;;4.32;2.55;;;4.80;99.90;;;;;;5053778;28;20090;-83
2021/05/08 04:35:57;;;;;;;3.95;2.30;;;4.90;99.90;;;;;;5035828;28;20028;-83
2021/05/08 04:38:23;;;;;;;6.75;2.88;;;5.10;99.90;;;;;;5053618;28;20025;-83
2021/05/08 04:40:53;;;;;;;3.70;2.45;;;5.10;99.90;;;;;;5035644;28;20183;-83
2021/05/08 04:43:19;;;;;;;3.47;2.47;;;5.40;99.90;;;;;;5053544;28;20097;-83
2021/05/08 04:45:44;;;;;;;3.03;2.08;;;5.60;99.90;;;;;;5053462;28;20028;-83
2021/05/08 04:48:10;;;;;;;4.85;2.40;;;5.50;99.90;;;;;;5053487;28;20488;-83
2021/05/08 04:50:36;;;;;;;3.75;2.20;;;5.50;99.90;;;;;;5035627;28;20028;-83
2021/05/08 04:53:02;;;;;;;3.50;2.47;;;5.20;99.90;;;;;;5035615;28;20506;-83
2021/05/08 04:55:27;;;;;;;4.35;2.58;;;5.00;99.90;;;;;;5053362;28;20488;-83
2021/05/08 04:57:53;;;;;;;4.47;2.58;;;5.20;99.90;;;;;;5035772;28;20029;-83
2021/05/08 05:00:19;;;;;;;3.13;2.13;;;5.20;99.90;;;;;;5035454;28;20116;-83
2021/05/08 05:02:46;;;;;;;5.82;2.55;;;5.30;99.90;;;;;;5035467;28;20506;-83
2021/05/08 05:05:14;;;;;;;11.75;6.35;;;5.40;99.90;;;;;;5053255;28;20017;-83
2021/05/08 05:07:43;;;;;;;6.82;4.05;;;5.50;99.90;;;;;;5053210;28;20473;-83
2021/05/08 05:10:13;;;;;;;6.32;4.15;;;5.30;99.90;;;;;;5035344;28;20060;-83
2021/05/08 05:12:39;;;;;;;6.47;4.22;;;5.40;99.90;;;;;;5053139;28;20052;-83
2021/05/08 05:15:09;;;;;;;5.63;3.60;;;5.20;99.90;;;;;;5053481;28;20068;-83
2021/05/08 05:17:35;;;;;;;7.03;4.10;;;5.20;99.90;;;;;;5035226;28;20032;-82
2021/05/08 05:20:02;;;;;;;4.35;2.97;;;4.90;99.90;;;;;;5035193;28;20025;-82
2021/05/08 05:22:28;;;;;;;5.93;2.83;;;4.90;99.90;;;;;;5038709;28;20032;-83
2021/05/08 05:24:53;;;;;;;4.65;2.95;;;4.90;99.90;;;;;;5039336;28;20024;-83
2021/05/08 05:27:19;;;;;;;4.80;2.83;;;4.90;99.90;;;;;;5039243;28;20024;-83
2021/05/08 05:29:45;;;;;;;7.05;2.85;;;5.30;99.90;;;;;;5057177;28;20503;-83
2021/05/08 05:32:11;;;;;;;8.52;2.88;;;5.30;99.90;;;;;;5039039;28;20029;-83
2021/05/08 05:34:37;;;;;;;5.82;3.30;;;5.20;99.90;;;;;;5039964;28;20031;-82
2021/05/08 05:37:03;;;;;;;3.63;2.60;;;5.40;99.90;;;;;;5057048;28;20025;-83
2021/05/08 05:39:28;;;;;;;5.00;2.83;;;5.80;99.90;;;;;;5039066;28;20150;-83
2021/05/08 05:41:54;;;;;;;11.25;2.80;;;5.80;99.90;;;;;;5039050;28;20032;-83
2021/05/08 05:44:20;;;;;;;4.53;2.70;;;6.00;99.90;;;;;;5038943;28;20120;-83
2021/05/08 05:46:46;;;;;;;6.70;2.80;;;6.20;99.90;;;;;;5038782;28;20021;-83
2021/05/08 05:49:11;;;;;;;4.13;2.70;;;6.30;99.90;;;;;;5056936;28;20488;-83
2021/05/08 05:51:37;;;;;;;4.00;2.58;;;6.20;99.90;;;;;;5038876;28;20021;-83
2021/05/08 05:54:03;;;;;;;6.72;2.90;;;6.30;99.90;;;;;;5038819;28;20024;-83
2021/05/08 05:56:29;;;;;;;5.25;2.92;;;5.90;99.90;;;;;;5038741;28;20051;-83
2021/05/08 05:58:55;;;;;;;4.45;2.45;;;5.90;99.90;;;;;;5038646;28;20029;-83
2021/05/08 06:01:21;;;;;;;7.85;3.00;;;5.90;99.90;;;;;;5038736;28;20036;-83
2021/05/08 06:03:47;;;;;;;4.40;2.85;;;5.90;99.90;;;;;;5038689;28;20025;-84
2021/05/08 06:06:13;;;;;;;3.67;2.60;;;5.90;99.90;;;;;;5038621;28;20079;-84
2021/05/08 06:08:39;;;;;;;3.97;2.67;;;6.10;99.90;;;;;;5038533;28;20028;-83
2021/05/08 06:11:05;;;;;;;4.75;2.80;;;6.40;99.90;;;;;;5038479;28;20100;-83
2021/05/08 06:13:32;;;;;;;3.85;2.40;;;6.70;99.90;;;;;;5056381;28;20029;-84
2021/05/08 06:15:59;;;;;;;6.45;2.45;;;6.70;99.90;;;;;;5056313;28;20510;-84
2021/05/08 06:18:25;;;;;;;5.65;2.42;;;6.80;99.90;;;;;;5038379;28;20399;-84
2021/05/08 06:20:51;;;;;;;9.05;2.78;;;7.10;99.90;;;;;;5056135;28;20369;-83
2021/05/08 06:23:18;;;;;;;4.15;2.70;;;7.00;99.90;;;;;;5038314;28;20021;-84
2021/05/08 06:25:44;;;;;;;3.85;2.47;;;7.00;99.90;;;;;;5056111;28;20432;-84
2021/05/08 06:28:09;;;;;;;5.45;2.70;;;7.30;99.90;;;;;;5038195;28;20052;-84
2021/05/08 06:30:35;;;;;;;7.93;2.97;;;7.30;99.90;;;;;;5055991;28;20025;-83
2021/05/08 06:33:01;;;;;;;6.18;2.90;;;7.20;99.90;;;;;;5055713;28;20055;-83
2021/05/08 06:35:27;;;;;;;5.25;2.50;;;7.30;99.90;;;;;;5038055;28;20025;-83
2021/05/08 06:37:52;;;;;;;4.45;2.58;;;7.30;99.90;;;;;;5037994;28;20025;-83
2021/05/08 06:40:18;;;;;;;6.15;2.67;;;7.40;99.90;;;;;;5038281;28;20476;-84
2021/05/08 06:42:44;;;;;;;4.68;3.00;;;7.60;99.90;;;;;;5055801;28;20495;-83
2021/05/08 06:45:10;;;;;;;3.67;2.40;;;7.50;99.90;;;;;;5037896;28;20033;-83
2021/05/08 06:47:36;;;;;;;5.45;2.40;;;7.70;99.90;;;;;;5037586;28;20041;-83
2021/05/08 06:50:02;;;;;;;6.18;2.72;;;7.90;99.90;;;;;;5037849;28;20058;-82
2021/05/08 06:52:28;;;;;;;7.38;3.20;;;8.00;99.90;;;;;;5037703;28;20029;-83
2021/05/08 06:54:53;;;;;;;4.82;2.60;;;8.20;99.90;;;;;;5055859;28;20043;-83
2021/05/08 06:57:19;;;;;;;7.32;2.50;;;8.30;99.90;;;;;;5055505;28;20029;-83
2021/05/08 06:59:45;;;;;;;5.55;2.55;;;8.50;99.90;;;;;;5037577;28;20040;-83
2021/05/08 07:02:10;;;;;;;10.70;2.70;;;8.80;99.90;;;;;;5037488;28;20480;-82
2021/05/08 07:04:36;;;;;;;3.28;2.10;;;8.90;99.90;;;;;;5037513;28;20021;-83
2021/05/08 07:07:02;;;;;;;3.90;2.13;;;9.00;99.90;;;;;;5037484;28;20547;-83
2021/05/08 07:09:28;;;;;;;3.25;1.80;;;9.00;99.90;;;;;;5037427;28;20115;-82
2021/05/08 07:11:53;;;;;;;5.03;2.28;;;9.00;99.90;;;;;;5037329;28;20488;-82
2021/05/08 07:14:19;;;;;;;4.10;1.88;;;9.10;99.90;;;;;;5037414;28;20032;-83
2021/05/08 07:16:44;;;;;;;2.60;1.48;;;9.20;99.90;;;;;;5037309;28;20522;-83
2021/05/08 07:19:10;;;;;;;3.13;2.00;;;9.30;99.90;;;;;;5055047;28;20389;-83
2021/05/08 07:21:38;;;;;;;3.97;2.03;;;9.40;99.90;;;;;;5037099;28;20387;-83
2021/05/08 07:24:05;;;;;;;6.05;1.73;;;9.40;99.90;;;;;;5037091;28;20029;-82
2021/05/08 07:26:30;;;;;;;4.97;2.00;;;9.40;99.90;;;;;;5037037;28;20021;-83
2021/05/08 07:28:56;;;;;;;6.07;1.90;;;9.40;99.90;;;;;;5037095;28;20021;-83
2021/05/08 07:31:22;;;;;;;3.42;1.90;;;9.40;99.90;;;;;;5054896;28;20044;-83
2021/05/08 07:33:48;;;;;;;4.85;1.80;;;9.50;99.90;;;;;;5055089;28;20057;-82
2021/05/08 07:36:13;;;;;;;4.72;1.95;;;9.60;99.90;;;;;;5036835;28;20116;-84
2021/05/08 07:38:39;;;;;;;5.35;1.73;;;9.80;99.90;;;;;;5055361;28;20036;-82
2021/05/08 07:41:05;;;;;;;3.90;1.88;;;9.90;99.90;;;;;;5037474;28;20036;-83
2021/05/08 07:43:30;;;;;;;4.40;1.90;;;9.90;99.90;;;;;;5036430;28;20024;-84
2021/05/08 07:45:56;;;;;;;2.03;1.58;;;9.70;99.90;;;;;;5037260;28;20108;-84
2021/05/08 07:48:22;;;;;;;2.53;1.70;;;9.80;99.90;;;;;;5055183;28;20452;-84
2021/05/08 07:50:48;;;;;;;2.50;1.95;;;9.90;99.90;;;;;;5037196;28;20032;-84
2021/05/08 07:53:14;;;;;;;3.17;1.88;;;9.90;99.90;;;;;;5055087;28;20040;-84
2021/05/08 07:55:40;;;;;;;4.18;1.75;;;9.90;99.90;;;;;;5037184;28;20075;-84
2021/05/08 07:58:06;;;;;;;3.20;1.77;;;10.20;99.90;;;;;;5037149;28;20029;-83
2021/05/08 08:00:32;;;;;;;3.40;1.50;;;10.30;99.90;;;;;;5054859;28;20029;-83
2021/05/08 08:02:58;;;;;;;2.00;1.50;;;10.30;99.90;;;;;;5036967;28;20445;-84
2021/05/08 08:05:23;;;;;;;5.47;1.85;;;10.30;99.90;;;;;;5037052;28;20045;-84
2021/05/08 08:07:49;;;;;;;2.80;2.00;;;10.50;99.90;;;;;;5055469;28;20461;-84
2021/05/08 08:10:15;;;;;;;5.35;1.90;;;10.60;99.90;;;;;;5054654;28;20040;-83
2021/05/08 08:12:42;;;;;;;2.70;1.70;;;10.80;99.90;;;;;;5036851;28;20025;-83
2021/05/08 08:15:10;;;;;;;3.70;1.90;;;10.80;99.90;;;;;;5036860;28;20483;-84
2021/05/08 08:17:36;;;;;;;2.92;1.80;;;11.00;99.90;;;;;;5036676;28;20032;-84
2021/05/08 08:20:08;;;;;;;8.30;1.70;;;11.20;99.90;;;;;;5036878;28;20025;-85
2021/05/08 08:22:38;;;;;;;2.38;1.80;;;11.30;99.90;;;;;;5036886;28;20392;-84
2021/05/08 08:25:14;;;;;;;6.88;1.95;;;11.40;99.90;;;;;;5057077;28;20029;-87
2021/05/08 08:27:40;;;;;;;15.65;2.40;;;11.50;99.90;;;;;;5055321;28;20465;-83
2021/05/08 08:30:09;;;;;;;10.63;2.03;;;11.60;99.90;;;;;;5036351;28;20029;-84
2021/05/08 08:32:35;;;;;;;3.80;2.03;;;11.60;99.90;;;;;;5054329;28;20122;-83
2021/05/08 08:35:00;;;;;;;2.97;1.73;;;11.60;99.90;;;;;;5036308;28;20111;-83
2021/05/08 08:37:27;;;;;;;3.08;1.90;;;11.80;99.90;;;;;;5036159;28;20108;-83
2021/05/08 08:39:52;;;;;;;4.25;1.73;;;12.00;99.90;;;;;;5053739;28;20036;-83
2021/05/08 08:42:19;;;;;;;2.80;1.70;;;12.20;99.90;;;;;;5035934;28;20021;-83
2021/05/08 08:44:45;;;;;;;5.15;1.50;;;12.40;99.90;;;;;;5036384;28;20053;-82
2021/05/08 08:47:28;;;;;;;2.55;1.25;;;12.40;99.90;;;;;;5035792;28;20032;-82
2021/05/08 08:50:03;;;;;;;5.43;1.75;;;12.50;99.90;;;;;;5035977;28;20029;-81
2021/05/08 08:52:30;;;;;;;3.08;1.65;;;12.50;99.90;;;;;;5035880;28;20488;-82
2021/05/08 08:54:57;;;;;;;4.22;2.03;;;12.70;99.90;;;;;;5053891;28;20029;-81
2021/05/08 08:57:28;;;;;;;4.57;1.60;;;12.80;99.90;;;;;;5035705;28;20029;-81
2021/05/08 08:59:55;;;;;;;5.80;1.50;;;12.70;99.90;;;;;;5035714;28;20033;-81
2021/05/08 09:02:25;;;;;;;4.82;2.13;;;13.10;99.90;;;;;;5035731;28;20022;-81
2021/05/08 09:04:51;;;;;;;3.42;1.60;;;13.20;99.90;;;;;;5035633;28;20021;-81
2021/05/08 09:07:21;;;;;;;3.10;1.48;;;13.10;99.90;;;;;;5053738;28;20475;-82
2021/05/08 09:09:49;;;;;;;5.88;1.70;;;13.20;99.50;;;;;;5035694;28;20025;-81
2021/05/08 09:12:15;;;;;;;4.97;1.70;;;13.30;99.00;;;;;;5035821;28;20698;-82
2021/05/08 09:14:48;;;;;;;5.57;1.63;;;13.30;99.30;;;;;;5035638;28;20115;-83
2021/05/08 09:17:21;;;;;;;5.72;1.38;;;13.30;98.50;;;;;;5036259;28;20040;-83
2021/05/08 09:19:58;;;;;;;3.08;1.50;;;13.40;97.70;;;;;;5036072;28;20033;-83
2021/05/08 09:22:38;;;;;;;3.95;1.45;;;13.20;98.10;;;;;;5035532;28;20025;-82
2021/05/08 09:25:10;;;;;;;3.05;1.27;;;13.20;98.00;;;;;;5035652;28;20021;-83
2021/05/08 09:27:49;;;;;;;5.70;1.40;;;13.30;98.60;;;;;;5035599;28;20071;-82
2021/05/08 09:30:29;;;;;;;4.30;1.70;;;13.50;96.80;;;;;;5035815;28;20025;-83
2021/05/08 09:32:54;;;;;;;3.47;1.50;;;13.70;97.10;;;;;;5035653;28;20048;-83
2021/05/08 09:35:34;;;;;;;4.57;1.48;;;13.90;95.60;;;;;;5035594;28;20076;-83
2021/05/08 09:38:29;;;;;;;3.90;1.38;;;13.90;93.40;;;;;;5053448;28;20049;-83
2021/05/08 09:40:55;;;;;;;2.58;1.50;;;14.10;94.40;;;;;;5033980;28;20029;-83
2021/05/08 09:43:21;;;;;;;8.07;1.30;;;14.20;95.20;;;;;;5035486;28;20028;-83
2021/05/08 09:45:50;;;;;;;2.42;1.30;;;14.30;95.00;;;;;;5035329;28;20036;-83
2021/05/08 09:48:23;;;;;;;5.60;1.38;;;14.40;92.20;;;;;;5035094;28;20044;-82
2021/05/08 09:50:50;;;;;;;5.28;1.60;;;14.50;92.80;;;;;;5035267;28;20133;-82
2021/05/08 09:53:31;;;;;;;2.13;1.10;;;14.50;91.90;;;;;;5035383;28;20033;-83
2021/05/08 09:55:58;;;;;;;5.25;2.55;;;14.70;93.50;;;;;;5035339;28;20028;-82
2021/05/08 09:58:26;;;;;;;4.18;1.50;;;14.80;91.40;;;;;;5053177;28;20025;-81
2021/05/08 10:00:54;;;;;;;3.03;1.23;;;15.00;91.90;;;;;;5035052;28;20036;-81
2021/05/08 10:03:23;;;;;;;4.75;1.83;;;15.10;90.70;;;;;;5035214;28;20455;-81
2021/05/08 10:06:08;;;;;;;4.28;1.60;;;15.10;91.90;;;;;;5035267;28;20021;-82
2021/05/08 10:08:33;;;;;;;4.20;1.30;;;15.40;92.50;;;;;;5056351;28;20075;-83
2021/05/08 10:11:00;;;;;;;3.28;1.52;;;15.80;91.80;;;;;;5056718;28;20025;-82
2021/05/08 10:13:27;;;;;;;4.30;1.35;;;15.90;91.50;;;;;;5038801;28;20033;-83
2021/05/08 10:15:57;;;;;;;5.80;1.70;;;15.90;91.10;;;;;;5038730;28;20047;-83
2021/05/08 10:18:25;;;;;;;6.47;1.48;;;16.00;90.20;;;;;;5038686;28;20025;-82
2021/05/08 10:20:51;;;;;;;2.33;1.45;;;16.40;91.50;;;;;;5038910;28;20025;-83
2021/05/08 10:23:18;;;;;;;3.53;1.48;;;16.30;90.30;;;;;;5056770;28;20029;-83
2021/05/08 10:25:44;;;;;;;3.28;1.83;;;16.30;91.50;;;;;;5056557;28;20090;-83
2021/05/08 10:28:10;;;;;;;2.40;1.52;;;16.10;90.20;;;;;;5038588;28;20029;-84
2021/05/08 10:30:40;;;;;;;3.80;1.90;;;16.00;90.90;;;;;;5038599;28;20021;-82
2021/05/08 10:33:11;;;;;;;6.03;2.03;;;15.60;90.40;;;;;;5038465;28;20025;-83
2021/05/08 10:35:38;;;;;;;3.97;1.83;;;15.40;91.00;;;;;;5038489;28;20372;-82
2021/05/08 10:38:19;;;;;;;3.67;1.50;;;15.40;91.60;;;;;;5038591;28;20024;-83
2021/05/08 10:41:00;;;;;;;7.60;1.88;;;15.50;92.50;;;;;;5038569;28;20269;-82
2021/05/08 10:43:47;;;;;;;4.60;1.98;;;15.40;91.40;;;;;;5056923;28;20021;-83
2021/05/08 10:46:15;;;;;;;3.97;1.67;;;15.30;91.70;;;;;;5038213;28;20021;-84
2021/05/08 10:49:09;;;;;;;2.13;1.33;;;15.30;92.10;;;;;;5038886;28;20115;-83
2021/05/08 10:51:56;;;;;;;2.15;1.63;;;15.20;92.10;;;;;;5038057;28;20199;-83
2021/05/08 10:54:43;;;;;;;3.60;1.58;;;15.50;91.30;;;;;;5056267;28;20051;-83
2021/05/08 10:57:25;;;;;;;6.68;4.55;;;15.50;91.80;;;;;;5037946;28;20032;-82
2021/05/08 11:00:07;;;;;;;3.45;1.80;;;15.20;91.50;;;;;;5055831;28;20025;-83
2021/05/08 11:02:44;;;;;;;2.90;1.63;;;14.80;92.70;;;;;;5038181;28;20021;-84
2021/05/08 11:05:26;;;;;;;4.10;1.80;;;14.70;93.30;;;;;;5038135;28;20029;-83
2021/05/08 11:07:52;;;;;;;2.90;1.70;;;14.90;92.40;;;;;;5037900;28;20032;-83
2021/05/08 11:10:39;;;;;;;4.47;2.05;;;15.30;92.60;;;;;;5037922;28;20415;-83
2021/05/08 11:13:13;;;;;;;2.85;1.33;;;15.70;91.50;;;;;;5055859;28;20055;-84
2021/05/08 11:15:54;;;;;;;2.80;1.75;;;15.90;90.30;;;;;;5056760;28;20021;-85
2021/05/08 11:18:39;;;;;;;3.90;1.58;;;15.90;90.50;;;;;;5055964;28;20017;-84
2021/05/08 11:21:08;;;;;;;6.55;1.70;;;15.60;91.30;;;;;;5038086;28;20051;-84
2021/05/08 11:23:51;;;;;;;8.05;1.90;;;16.20;90.20;;;;;;5037837;28;20021;-84
2021/05/08 11:26:23;;;;;;;5.13;1.52;;;16.60;90.50;;;;;;5055679;28;20415;-83
2021/05/08 11:28:57;;;;;;;7.03;1.60;;;16.80;88.50;;;;;;5037963;28;20016;-84
2021/05/08 11:31:24;;;;;;;6.15;1.60;;;16.90;86.70;;;;;;5037555;28;20021;-84
2021/05/08 11:33:50;;;;;;;2.70;1.50;;;16.90;85.50;;;;;;5038305;28;20029;-84
2021/05/08 11:36:16;;;;;;;3.10;1.45;;;16.80;86.80;;;;;;5055165;28;20090;-84
2021/05/08 11:38:43;;;;;;;2.88;1.40;;;16.70;87.60;;;;;;5038126;28;20110;-84
2021/05/08 11:41:22;;;;;;;3.45;1.15;;;16.80;89.50;;;;;;5037775;28;20025;-86
2021/05/08 11:43:55;;;;;;;2.80;1.42;;;16.70;85.80;;;;;;5038027;28;20039;-84
2021/05/08 11:46:25;;;;;;;7.57;1.33;;;16.10;84.50;;;;;;5037842;28;20024;-85
2021/05/08 11:48:51;;;;;;;3.45;1.45;;;16.40;88.00;;;;;;5037813;28;20048;-85
2021/05/08 11:51:18;;;;;;;2.15;1.25;;;;;;;;;;5055309;28;20033;-84
2021/05/08 11:53:43;;;;;;;2.63;1.10;;;17.00;82.50;;;;;;5038827;28;20025;-86
2021/05/08 11:56:09;;;;;;;4.00;1.48;;;17.30;85.70;;;;;;5038584;28;20438;-86
2021/05/08 11:58:35;;;;;;;2.33;1.20;;;17.40;84.60;;;;;;5056091;28;20033;-86
2021/05/08 12:01:01;;;;;;;1.77;1.17;;;17.30;81.50;;;;;;5038630;28;20511;-86
2021/05/08 12:03:28;;;;;;;1.50;1.00;;;17.40;82.50;;;;;;5037937;28;20067;-84
2021/05/08 12:05:54;;;;;;;1.73;1.00;;;17.30;81.90;;;;;;5037886;28;20025;-84
2021/05/08 12:08:24;;;;;;;2.83;1.55;;;17.00;81.50;;;;;;5037811;28;20519;-85
2021/05/08 12:10:53;;;;;;;1.27;0.93;;;16.60;84.90;;;;;;5038316;28;20167;-85
2021/05/08 12:13:19;;;;;;;3.08;1.25;;;16.80;82.60;;;;;;5037683;28;20025;-86
2021/05/08 12:15:52;;;;;;;4.43;1.05;;;17.10;84.10;;;;;;5037286;28;20040;-86
2021/05/08 12:18:20;;;;;;;2.35;1.05;;;17.40;83.80;;;;;;5055293;28;20151;-86
2021/05/08 12:20:47;;;;;;;2.95;1.27;;;17.60;80.50;;;;;;5037646;28;20040;-86
2021/05/08 12:23:24;;;;;;;3.90;1.38;;;17.60;82.20;;;;;;5055477;28;20049;-85
2021/05/08 12:26:15;;;;;;;2.88;1.27;;;17.80;82.10;;;;;;5055472;28;20025;-86
2021/05/08 12:29:01;;;;;;;3.03;1.45;;;17.40;78.30;;;;;;5055327;28;20020;-87
2021/05/08 12:31:34;;;;;;;4.95;1.02;;;17.90;81.10;;;;;;5054493;28;20033;-85
2021/05/08 12:34:12;;;;;;;3.20;1.77;;;18.30;79.00;;;;;;5036448;28;20403;-86
2021/05/08 12:36:40;;;;;;;3.03;1.17;;;18.20;76.80;;;;;;5054096;28;20469;-82
2021/05/08 12:39:25;;;;;;;3.30;0.93;;;18.10;78.00;;;;;;5054055;28;20025;-83
2021/05/08 12:41:54;;;;;;;2.85;1.50;;;17.70;81.50;;;;;;5036289;28;20024;-82
2021/05/08 12:44:38;;;;;;;2.47;1.38;;;17.60;81.20;;;;;;5036275;28;20025;-82
2021/05/08 12:47:22;;;;;;;3.90;1.50;;;17.30;80.50;;;;;;5036133;28;20021;-83
2021/05/08 12:50:23;;;;;;;3.87;1.10;;;17.00;80.80;;;;;;5053999;28;20079;-83
2021/05/08 12:52:58;;;;;;;1.83;1.08;;;16.90;82.90;;;;;;5026495;28;20144;-83
2021/05/08 12:55:35;;;;;;;3.80;0.90;;;16.90;83.70;;;;;;5053910;28;20125;-82
2021/05/08 12:58:19;;;;;;;3.50;1.15;;;16.90;82.50;;;;;;5036293;28;20021;-82